Time;durP1;ratioP1;P1;durP2;ratioP2;P2;SDS_P1;SDS_P2;PMS_P1;PMS_P2;Temp;Humidity;BMP_temperature;BMP_pressure;BME280_temperature;BME280_humidity;BME280_pressure;Samples;Min_cycle;Max_cycle;Signal;HPM_P1;HPM_P2
2023/06/21 00:00:13;;;;;;;12.98;11.30;;;19.10;99.90;;;;;;5055676;28;20128;-64
2023/06/21 00:02:41;;;;;;;15.27;11.45;;;19.00;99.90;;;;;;5062661;28;20048;-64
2023/06/21 00:05:08;;;;;;;13.80;11.98;;;19.10;99.90;;;;;;5056336;28;20108;-64
2023/06/21 00:07:35;;;;;;;14.80;13.15;;;19.00;99.90;;;;;;5038665;28;20048;-65
2023/06/21 00:10:02;;;;;;;16.48;12.57;;;19.00;99.90;;;;;;5073435;28;20494;-65
2023/06/21 00:12:30;;;;;;;17.05;13.73;;;19.00;99.90;;;;;;5074005;28;20110;-65
2023/06/21 00:14:58;;;;;;;16.00;13.57;;;19.00;99.90;;;;;;5056329;28;20102;-64
2023/06/21 00:17:25;;;;;;;19.45;14.73;;;19.00;99.90;;;;;;5074050;28;20064;-65
2023/06/21 00:19:54;;;;;;;19.00;14.27;;;19.00;99.90;;;;;;5056275;28;20070;-65
2023/06/21 00:22:22;;;;;;;19.70;15.68;;;19.00;99.90;;;;;;5073505;28;20080;-64
2023/06/21 00:24:48;;;;;;;18.20;14.70;;;18.90;99.90;;;;;;5037484;28;20048;-65
2023/06/21 00:27:16;;;;;;;17.48;15.23;;;18.80;99.90;;;;;;5036906;28;20539;-65
2023/06/21 00:29:42;;;;;;;19.55;16.10;;;18.90;99.90;;;;;;5054624;28;20103;-64
2023/06/21 00:32:11;;;;;;;17.85;15.95;;;18.80;99.90;;;;;;5037219;28;20052;-64
2023/06/21 00:34:38;;;;;;;24.08;17.92;;;18.80;99.90;;;;;;5037313;28;20060;-64
2023/06/21 00:37:05;;;;;;;20.27;16.92;;;18.80;99.90;;;;;;5038728;28;20053;-64
2023/06/21 00:39:32;;;;;;;19.35;16.05;;;18.80;99.90;;;;;;5036778;28;20056;-64
2023/06/21 00:41:59;;;;;;;20.90;16.70;;;18.70;99.90;;;;;;5055554;28;20487;-64
2023/06/21 00:44:26;;;;;;;22.25;17.88;;;18.70;99.90;;;;;;5073283;28;20079;-65
2023/06/21 00:46:53;;;;;;;21.45;17.33;;;18.70;99.90;;;;;;5073467;28;20040;-65
2023/06/21 00:49:21;;;;;;;21.92;17.40;;;18.70;99.90;;;;;;5055616;28;20122;-66
2023/06/21 00:51:48;;;;;;;22.40;17.83;;;18.70;99.90;;;;;;5054855;28;20055;-64
2023/06/21 00:54:17;;;;;;;23.63;18.80;;;18.60;99.90;;;;;;5073525;28;20052;-65
2023/06/21 00:56:44;;;;;;;23.05;18.98;;;18.60;99.90;;;;;;5036676;28;20077;-64
2023/06/21 00:59:11;;;;;;;24.40;19.60;;;18.60;99.90;;;;;;5054430;28;20095;-65
2023/06/21 01:01:38;;;;;;;29.13;19.95;;;18.60;99.90;;;;;;5055441;28;20044;-63
2023/06/21 01:04:08;;;;;;;25.15;20.05;;;18.60;99.90;;;;;;5055424;28;20053;-65
2023/06/21 01:06:44;;;;;;;23.70;19.48;;;18.60;99.90;;;;;;5053297;28;20131;-63
2023/06/21 01:09:25;;;;;;;28.38;20.88;;;18.60;99.90;;;;;;5037114;28;20053;-63
2023/06/21 01:11:57;;;;;;;28.17;20.02;;;18.60;99.90;;;;;;5054693;28;20049;-64
2023/06/21 01:14:32;;;;;;;25.38;19.90;;;18.60;99.90;;;;;;5037304;28;20056;-63
2023/06/21 01:17:02;;;;;;;25.42;20.42;;;18.60;99.90;;;;;;5037098;28;20099;-65
2023/06/21 01:19:36;;;;;;;;;;;18.60;99.90;;;;;;5071998;28;20048;-63
2023/06/21 01:22:16;;;;;;;28.63;21.25;;;18.60;99.90;;;;;;5056055;28;19920;-64
2023/06/21 01:25:00;;;;;;;26.55;21.83;;;18.60;99.90;;;;;;5055499;28;20452;-63
2023/06/21 01:27:42;;;;;;;23.77;20.63;;;18.60;99.90;;;;;;5072017;28;20048;-64
2023/06/21 01:30:12;;;;;;;28.88;23.77;;;18.60;99.90;;;;;;5055051;28;20121;-63
2023/06/21 01:32:40;;;;;;;27.13;21.35;;;18.60;99.90;;;;;;5054136;28;20106;-64
2023/06/21 01:35:09;;;;;;;31.05;21.80;;;18.70;99.90;;;;;;5054977;28;20044;-64
2023/06/21 01:37:37;;;;;;;28.90;22.90;;;18.70;99.90;;;;;;5053668;28;20045;-65
2023/06/21 01:40:10;;;;;;;30.80;23.70;;;18.70;99.90;;;;;;5053008;28;20048;-63
2023/06/21 01:42:37;;;;;;;28.27;22.38;;;18.70;99.90;;;;;;5053818;28;20057;-64
2023/06/21 01:45:05;;;;;;;27.35;22.77;;;18.70;99.90;;;;;;5072429;28;20049;-64
2023/06/21 01:47:34;;;;;;;27.63;22.25;;;18.70;99.90;;;;;;5053840;28;20102;-65
2023/06/21 01:50:02;;;;;;;27.40;22.23;;;18.70;99.90;;;;;;5061135;28;20086;-65
2023/06/21 01:52:30;;;;;;;27.55;22.25;;;18.70;99.90;;;;;;5071944;28;20098;-65
2023/06/21 01:54:58;;;;;;;27.52;21.52;;;18.70;99.90;;;;;;5053749;28;20070;-65
2023/06/21 01:57:27;;;;;;;26.25;21.90;;;18.70;99.90;;;;;;5071907;28;20048;-65
2023/06/21 01:59:54;;;;;;;28.63;22.55;;;18.70;99.90;;;;;;5072369;28;20052;-65
2023/06/21 02:02:23;;;;;;;28.75;23.38;;;18.80;99.90;;;;;;5036025;28;20053;-65
2023/06/21 02:04:52;;;;;;;25.67;21.05;;;18.70;99.90;;;;;;5071765;28;20488;-64
2023/06/21 02:07:20;;;;;;;28.17;21.85;;;18.70;99.90;;;;;;5054015;28;20048;-66
2023/06/21 02:09:48;;;;;;;27.75;21.00;;;18.70;99.90;;;;;;5071325;28;20040;-65
2023/06/21 02:12:15;;;;;;;27.00;21.73;;;18.70;99.90;;;;;;5071588;28;20131;-65
2023/06/21 02:14:42;;;;;;;28.35;22.70;;;18.70;99.90;;;;;;5053830;28;20494;-64
2023/06/21 02:17:09;;;;;;;30.88;21.92;;;18.70;99.90;;;;;;5072048;28;20044;-65
2023/06/21 02:19:38;;;;;;;27.77;23.08;;;18.70;99.90;;;;;;5053924;28;20083;-65
2023/06/21 02:22:07;;;;;;;34.53;24.17;;;18.70;99.90;;;;;;5053384;28;20055;-63
2023/06/21 02:24:34;;;;;;;32.22;24.23;;;18.70;99.90;;;;;;5072105;28;20059;-65
2023/06/21 02:27:01;;;;;;;37.80;24.45;;;18.70;99.90;;;;;;5071535;28;20090;-65
2023/06/21 02:29:28;;;;;;;32.78;23.75;;;18.70;99.90;;;;;;5071113;28;20068;-65
2023/06/21 02:31:55;;;;;;;31.48;24.77;;;18.70;99.90;;;;;;5053898;28;20056;-64
2023/06/21 02:34:22;;;;;;;33.67;25.98;;;18.70;99.90;;;;;;5071482;28;20506;-64
2023/06/21 02:36:53;;;;;;;41.78;27.33;;;18.60;99.90;;;;;;5070828;28;20491;-64
2023/06/21 02:39:22;;;;;;;42.10;26.85;;;18.60;99.90;;;;;;5071568;28;20067;-64
2023/06/21 02:41:49;;;;;;;39.58;28.50;;;18.60;99.90;;;;;;5053938;28;20147;-64
2023/06/21 02:44:16;;;;;;;35.17;27.25;;;18.60;99.90;;;;;;5053032;28;20403;-64
2023/06/21 02:46:43;;;;;;;34.47;27.58;;;18.50;99.90;;;;;;5071652;28;20376;-65
2023/06/21 02:49:10;;;;;;;36.97;28.15;;;18.50;99.90;;;;;;5053272;28;20076;-64
2023/06/21 02:51:37;;;;;;;40.35;28.60;;;18.50;99.90;;;;;;5053310;28;20052;-64
2023/06/21 02:54:04;;;;;;;38.05;27.05;;;18.40;99.90;;;;;;5053434;28;20553;-64
2023/06/21 02:56:32;;;;;;;35.53;26.42;;;18.40;99.90;;;;;;5071743;28;20037;-65
2023/06/21 02:58:59;;;;;;;41.80;29.52;;;18.30;99.90;;;;;;5052905;28;20049;-65
2023/06/21 03:01:26;;;;;;;37.70;28.38;;;18.30;99.90;;;;;;5071519;28;20048;-65
2023/06/21 03:03:53;;;;;;;38.55;26.83;;;18.30;99.90;;;;;;5036623;28;20110;-66
2023/06/21 03:06:23;;;;;;;36.47;28.35;;;18.30;99.90;;;;;;5044165;28;20049;-66
2023/06/21 03:08:51;;;;;;;33.78;26.30;;;18.30;99.90;;;;;;5058202;28;20044;-65
2023/06/21 03:11:18;;;;;;;38.33;29.08;;;18.30;99.90;;;;;;5054479;28;20041;-66
2023/06/21 03:13:47;;;;;;;33.35;22.65;;;18.30;99.90;;;;;;5060833;28;20126;-66
2023/06/21 03:16:13;;;;;;;38.70;26.90;;;18.40;99.90;;;;;;5040070;28;20045;-64
2023/06/21 03:18:40;;;;;;;36.33;25.25;;;18.40;99.90;;;;;;5042040;28;20565;-66
2023/06/21 03:21:08;;;;;;;40.38;28.60;;;18.40;99.90;;;;;;5055513;28;20049;-66
2023/06/21 03:23:35;;;;;;;35.75;26.27;;;18.50;99.90;;;;;;5064963;28;20052;-66
2023/06/21 03:26:02;;;;;;;41.83;28.88;;;18.40;99.90;;;;;;5041091;28;20049;-65
2023/06/21 03:28:29;;;;;;;43.10;28.42;;;18.40;99.90;;;;;;5061884;28;20141;-65
2023/06/21 03:30:57;;;;;;;42.88;30.17;;;18.50;99.90;;;;;;5045992;28;20556;-65
2023/06/21 03:33:24;;;;;;;37.15;28.05;;;18.50;99.90;;;;;;5041913;28;20053;-65
2023/06/21 03:35:51;;;;;;;36.28;28.92;;;18.50;99.90;;;;;;5048135;28;20099;-63
2023/06/21 03:38:18;;;;;;;35.45;26.38;;;18.60;99.90;;;;;;5063716;28;20381;-66
2023/06/21 03:40:45;;;;;;;40.33;28.38;;;18.60;99.90;;;;;;5045433;28;20410;-66
2023/06/21 03:43:13;;;;;;;37.38;27.35;;;18.70;99.90;;;;;;5038383;28;20049;-65
2023/06/21 03:45:40;;;;;;;38.85;28.40;;;18.60;99.90;;;;;;5046166;28;20052;-65
2023/06/21 03:48:09;;;;;;;37.85;28.15;;;18.60;99.90;;;;;;5041618;28;20106;-64
2023/06/21 03:50:35;;;;;;;35.85;26.38;;;18.60;99.90;;;;;;5043396;28;20479;-64
2023/06/21 03:53:03;;;;;;;38.40;26.58;;;18.60;99.90;;;;;;5063972;28;20438;-64
2023/06/21 03:55:30;;;;;;;42.38;29.02;;;18.60;99.90;;;;;;5064924;28;20131;-66
2023/06/21 03:57:57;;;;;;;38.47;29.40;;;18.60;99.90;;;;;;5044473;28;20095;-65
2023/06/21 04:00:24;;;;;;;31.92;23.30;;;18.50;99.90;;;;;;5063323;28;20101;-64
2023/06/21 04:02:51;;;;;;;35.08;27.38;;;18.60;99.90;;;;;;5038393;28;20102;-64
2023/06/21 04:05:19;;;;;;;38.97;28.48;;;18.60;99.90;;;;;;5059994;28;20076;-65
2023/06/21 04:07:47;;;;;;;36.53;27.80;;;18.70;99.90;;;;;;5065328;28;20517;-65
2023/06/21 04:10:14;;;;;;;36.72;27.25;;;18.70;99.90;;;;;;5041471;28;20059;-65
2023/06/21 04:12:41;;;;;;;35.15;26.67;;;18.60;99.90;;;;;;5042563;28;20045;-66
2023/06/21 04:15:09;;;;;;;39.10;28.33;;;18.70;99.90;;;;;;5043825;28;20053;-66
2023/06/21 04:17:36;;;;;;;37.47;27.45;;;18.80;99.90;;;;;;5060663;28;20056;-65
2023/06/21 04:20:11;;;;;;;38.25;29.05;;;18.90;99.90;;;;;;5043328;28;20045;-65
2023/06/21 04:22:39;;;;;;;40.25;26.92;;;18.80;99.90;;;;;;5043077;28;20048;-64
2023/06/21 04:25:06;;;;;;;35.33;27.38;;;18.80;99.90;;;;;;5042364;28;20103;-66
2023/06/21 04:27:33;;;;;;;36.33;25.42;;;18.80;99.90;;;;;;5047679;28;20076;-65
2023/06/21 04:30:00;;;;;;;37.10;27.40;;;18.70;99.90;;;;;;5063538;28;20060;-65
2023/06/21 04:32:31;;;;;;;39.97;28.08;;;18.80;99.90;;;;;;5062491;28;20541;-65
2023/06/21 04:34:59;;;;;;;37.80;27.75;;;18.80;99.90;;;;;;5059806;28;20045;-65
2023/06/21 04:37:26;;;;;;;37.35;26.90;;;18.90;99.90;;;;;;5044524;28;20041;-67
2023/06/21 04:39:54;;;;;;;39.72;26.75;;;19.00;99.90;;;;;;5041031;28;20459;-67
2023/06/21 04:42:21;;;;;;;41.15;28.27;;;19.00;99.90;;;;;;5058939;28;20053;-65
2023/06/21 04:44:49;;;;;;;41.78;28.15;;;19.00;99.90;;;;;;5061415;28;20041;-66
2023/06/21 04:47:16;;;;;;;36.50;26.65;;;19.00;99.90;;;;;;5041511;28;22024;-66
2023/06/21 04:49:43;;;;;;;37.20;25.95;;;19.00;99.90;;;;;;5037303;28;20061;-66
2023/06/21 04:52:10;;;;;;;39.78;26.60;;;19.10;99.90;;;;;;5061442;28;20052;-66
2023/06/21 04:54:37;;;;;;;33.17;22.88;;;19.10;99.90;;;;;;5039161;28;20074;-67
2023/06/21 04:57:06;;;;;;;34.90;24.63;;;19.10;99.90;;;;;;5042108;28;20492;-68
2023/06/21 04:59:34;;;;;;;31.67;22.50;;;19.10;99.90;;;;;;5042109;28;20403;-67
2023/06/21 05:02:01;;;;;;;32.17;21.95;;;19.10;99.90;;;;;;5062149;28;20102;-67
2023/06/21 05:04:27;;;;;;;30.02;21.40;;;19.10;99.90;;;;;;5038769;28;20057;-66
2023/06/21 05:06:54;;;;;;;31.48;22.05;;;19.10;99.90;;;;;;5061443;28;20060;-66
2023/06/21 05:09:21;;;;;;;29.98;20.35;;;19.10;99.90;;;;;;5059243;28;20569;-65
2023/06/21 05:11:48;;;;;;;27.13;20.05;;;19.20;99.90;;;;;;5046812;28;20504;-66
2023/06/21 05:14:16;;;;;;;23.45;17.77;;;19.30;99.90;;;;;;5062120;28;20393;-65
2023/06/21 05:16:44;;;;;;;27.63;19.83;;;19.30;99.90;;;;;;5040490;28;20059;-64
2023/06/21 05:19:11;;;;;;;29.98;18.95;;;19.40;99.90;;;;;;5056754;28;20044;-65
2023/06/21 05:21:38;;;;;;;22.58;16.52;;;19.50;99.90;;;;;;5060780;28;20056;-65
2023/06/21 05:24:05;;;;;;;26.67;17.50;;;19.50;99.90;;;;;;5055572;28;20106;-65
2023/06/21 05:26:32;;;;;;;23.63;16.30;;;19.60;99.90;;;;;;5039751;28;20488;-65
2023/06/21 05:28:59;;;;;;;33.28;19.48;;;19.80;99.90;;;;;;5037904;28;20045;-66
2023/06/21 05:31:28;;;;;;;28.90;18.33;;;19.80;99.90;;;;;;5037499;28;20083;-66
2023/06/21 05:33:55;;;;;;;22.55;15.45;;;20.00;99.90;;;;;;5041188;28;20055;-65
2023/06/21 05:36:22;;;;;;;24.70;15.05;;;20.00;99.90;;;;;;5035584;28;20045;-66
2023/06/21 05:38:49;;;;;;;22.00;14.88;;;20.10;99.90;;;;;;5058565;28;20040;-66
2023/06/21 05:41:16;;;;;;;18.90;13.80;;;20.20;99.90;;;;;;5036196;28;20052;-66
2023/06/21 05:43:43;;;;;;;21.83;13.90;;;20.20;99.90;;;;;;5059978;28;20060;-65
2023/06/21 05:46:10;;;;;;;23.30;15.32;;;20.20;99.90;;;;;;5042617;28;20056;-66
2023/06/21 05:48:38;;;;;;;21.67;14.43;;;20.30;99.90;;;;;;5038031;28;20424;-66
2023/06/21 05:51:05;;;;;;;22.27;13.43;;;20.30;99.90;;;;;;5055395;28;20063;-65
2023/06/21 05:53:32;;;;;;;18.45;13.57;;;20.50;99.90;;;;;;5051219;28;20137;-65
2023/06/21 05:55:59;;;;;;;21.13;13.25;;;20.60;99.90;;;;;;5053177;28;20094;-64
2023/06/21 05:58:26;;;;;;;18.25;12.60;;;20.50;99.90;;;;;;5035673;28;20053;-66
2023/06/21 06:00:53;;;;;;;19.48;13.20;;;20.60;99.90;;;;;;5065624;28;20048;-65
2023/06/21 06:03:20;;;;;;;18.85;13.15;;;20.70;99.90;;;;;;5072025;28;20449;-66
2023/06/21 06:05:49;;;;;;;19.52;12.60;;;20.50;99.90;;;;;;5072084;28;20051;-65
2023/06/21 06:08:16;;;;;;;15.43;11.80;;;20.60;99.90;;;;;;5071471;28;20040;-66
2023/06/21 06:10:43;;;;;;;18.08;11.85;;;20.70;99.90;;;;;;5054232;28;20056;-66
2023/06/21 06:13:10;;;;;;;18.25;11.90;;;20.80;99.90;;;;;;5056472;28;20084;-65
2023/06/21 06:15:37;;;;;;;16.60;11.75;;;20.90;99.90;;;;;;5052401;28;20049;-66
2023/06/21 06:18:04;;;;;;;21.50;13.27;;;21.00;99.90;;;;;;5053189;28;20037;-65
2023/06/21 06:20:30;;;;;;;20.45;12.82;;;21.10;99.90;;;;;;5035393;28;20053;-65
2023/06/21 06:23:01;;;;;;;18.73;12.80;;;21.00;99.90;;;;;;5052358;28;20048;-65
2023/06/21 06:25:28;;;;;;;17.17;11.90;;;21.10;99.90;;;;;;5053760;28;20048;-65
2023/06/21 06:27:55;;;;;;;17.08;12.27;;;21.20;99.90;;;;;;5053275;28;20044;-64
2023/06/21 06:30:22;;;;;;;17.17;12.57;;;21.40;99.90;;;;;;5054065;28;20430;-66
2023/06/21 06:32:48;;;;;;;20.85;13.05;;;21.40;99.90;;;;;;5055406;28;20053;-65
2023/06/21 06:35:15;;;;;;;17.88;12.38;;;21.50;99.90;;;;;;5034487;28;20229;-65
2023/06/21 06:37:42;;;;;;;16.73;12.52;;;21.70;99.90;;;;;;5053685;28;20048;-65
2023/06/21 06:40:12;;;;;;;18.45;12.15;;;21.80;99.90;;;;;;5071450;28;20499;-65
2023/06/21 06:42:38;;;;;;;18.43;13.80;;;21.80;99.90;;;;;;5052347;28;20053;-65
2023/06/21 06:45:06;;;;;;;15.23;11.52;;;21.90;99.90;;;;;;5035101;28;20048;-65
2023/06/21 06:47:33;;;;;;;19.30;13.07;;;22.20;99.90;;;;;;5036921;28;20057;-65
2023/06/21 06:50:02;;;;;;;21.55;11.43;;;22.30;99.90;;;;;;5041333;28;20064;-64
2023/06/21 06:52:30;;;;;;;14.20;11.02;;;22.50;99.90;;;;;;5071622;28;20058;-66
2023/06/21 06:54:56;;;;;;;17.58;11.13;;;22.60;99.90;;;;;;5053664;28;20560;-64
2023/06/21 06:57:25;;;;;;;16.15;9.95;;;22.50;99.90;;;;;;5071065;28;20103;-66
2023/06/21 06:59:51;;;;;;;16.67;10.43;;;22.70;99.90;;;;;;5074485;28;20052;-65
2023/06/21 07:02:18;;;;;;;18.02;10.38;;;22.80;99.90;;;;;;5057711;28;20052;-66
2023/06/21 07:04:45;;;;;;;13.07;9.80;;;23.00;99.90;;;;;;5057294;28;20446;-65
2023/06/21 07:07:12;;;;;;;16.52;9.75;;;23.20;99.90;;;;;;5041460;28;20106;-65
2023/06/21 07:09:39;;;;;;;14.45;9.48;;;23.40;99.90;;;;;;5056679;28;20056;-65
2023/06/21 07:12:06;;;;;;;14.70;9.13;;;23.60;99.90;;;;;;5054685;28;20044;-65
2023/06/21 07:14:35;;;;;;;10.95;7.93;;;23.90;99.90;;;;;;5075243;28;20090;-64
2023/06/21 07:17:02;;;;;;;13.55;8.82;;;24.20;99.90;;;;;;5057528;28;20066;-63
2023/06/21 07:19:29;;;;;;;9.73;6.90;;;24.40;99.90;;;;;;5056763;28;20048;-65
2023/06/21 07:21:55;;;;;;;10.23;7.53;;;24.50;99.90;;;;;;5075169;28;20044;-64
2023/06/21 07:24:22;;;;;;;11.30;7.85;;;24.40;99.90;;;;;;5074618;28;20169;-65
2023/06/21 07:26:49;;;;;;;12.00;8.15;;;24.20;99.90;;;;;;5074988;28;20052;-64
2023/06/21 07:29:16;;;;;;;11.77;7.57;;;24.60;99.90;;;;;;5057351;28;20044;-66
2023/06/21 07:31:44;;;;;;;8.82;6.40;;;24.70;99.90;;;;;;5074135;28;20053;-65
2023/06/21 07:34:12;;;;;;;11.40;7.00;;;24.70;99.90;;;;;;5075018;28;20057;-64
2023/06/21 07:36:40;;;;;;;9.32;6.38;;;25.10;99.90;;;;;;5056942;28;20400;-65
2023/06/21 07:39:07;;;;;;;11.45;6.53;;;25.40;99.90;;;;;;5056445;28;20044;-65
2023/06/21 07:41:34;;;;;;;11.00;7.20;;;25.40;99.90;;;;;;5074906;28;20044;-64
2023/06/21 07:44:01;;;;;;;10.60;6.63;;;24.80;99.90;;;;;;5057221;28;20442;-65
2023/06/21 07:46:28;;;;;;;9.93;7.35;;;24.80;99.90;;;;;;5055184;28;20459;-64
2023/06/21 07:48:56;;;;;;;8.60;6.40;;;25.10;99.90;;;;;;5055605;28;20046;-65
2023/06/21 07:51:23;;;;;;;11.25;7.05;;;25.10;99.90;;;;;;5073145;28;20494;-66
2023/06/21 07:53:50;;;;;;;8.93;6.63;;;25.10;99.90;;;;;;5057976;28;20458;-65
2023/06/21 07:56:17;;;;;;;10.35;7.28;;;25.20;99.90;;;;;;5055658;28;20431;-64
2023/06/21 07:58:44;;;;;;;9.00;6.18;;;25.50;99.90;;;;;;5074367;28;20446;-65
2023/06/21 08:01:12;;;;;;;7.68;5.65;;;25.90;99.90;;;;;;5055840;28;20049;-65
2023/06/21 08:03:39;;;;;;;8.63;6.13;;;26.00;99.90;;;;;;5074701;28;20492;-64
2023/06/21 08:06:08;;;;;;;9.60;5.88;;;26.10;99.90;;;;;;5056271;28;20048;-65
2023/06/21 08:08:34;;;;;;;8.57;6.22;;;26.50;99.90;;;;;;5055978;28;20451;-66
2023/06/21 08:11:01;;;;;;;9.82;5.70;;;26.70;99.90;;;;;;5073487;28;20048;-65
2023/06/21 08:13:29;;;;;;;7.72;6.05;;;27.00;99.90;;;;;;5055973;28;20055;-65
2023/06/21 08:15:56;;;;;;;13.05;6.20;;;27.10;99.90;;;;;;5056067;28;20051;-65
2023/06/21 08:18:23;;;;;;;9.00;5.30;;;27.00;99.90;;;;;;5056513;28;20090;-67
2023/06/21 08:20:49;;;;;;;9.30;5.78;;;27.10;99.90;;;;;;5054862;28;20045;-64
2023/06/21 08:23:18;;;;;;;10.40;5.72;;;27.10;99.90;;;;;;5055153;28;20045;-65
2023/06/21 08:25:45;;;;;;;8.10;4.82;;;27.10;99.90;;;;;;5055304;28;20057;-65
2023/06/21 08:28:12;;;;;;;6.60;5.07;;;27.40;99.90;;;;;;5036577;28;20098;-65
2023/06/21 08:30:39;;;;;;;9.68;5.68;;;27.80;99.90;;;;;;5054935;28;20052;-66
2023/06/21 08:33:06;;;;;;;7.97;5.10;;;27.90;99.90;;;;;;5056024;28;20450;-65
2023/06/21 08:35:33;;;;;;;8.38;5.93;;;27.80;99.90;;;;;;5055552;28;20048;-65
2023/06/21 08:38:00;;;;;;;7.43;5.45;;;28.10;99.70;;;;;;5037273;28;20492;-65
2023/06/21 08:40:31;;;;;;;7.28;5.60;;;28.10;99.40;;;;;;5055484;28;20053;-65
2023/06/21 08:42:58;;;;;;;8.05;5.50;;;28.20;98.90;;;;;;5055058;28;20500;-66
2023/06/21 08:45:25;;;;;;;7.32;5.22;;;28.40;98.00;;;;;;5037226;28;20049;-66
2023/06/21 08:47:53;;;;;;;7.22;5.10;;;28.20;98.10;;;;;;5054817;28;20099;-66
2023/06/21 08:50:21;;;;;;;7.30;5.03;;;28.30;98.50;;;;;;5064375;28;20135;-65
2023/06/21 08:52:50;;;;;;;9.82;5.20;;;28.30;97.10;;;;;;5057194;28;20079;-65
2023/06/21 08:55:19;;;;;;;;;;;28.30;96.60;;;;;;5055245;28;20098;-65
2023/06/21 08:57:52;;;;;;;8.48;5.35;;;28.60;96.10;;;;;;5072759;28;19997;-65
2023/06/21 09:00:22;;;;;;;7.88;5.43;;;28.40;96.60;;;;;;5073755;28;20409;-64
2023/06/21 09:02:57;;;;;;;6.47;5.20;;;28.30;97.00;;;;;;5072560;28;20045;-64
2023/06/21 09:05:29;;;;;;;7.22;5.85;;;28.70;95.70;;;;;;5055303;28;20058;-65
2023/06/21 09:07:58;;;;;;;6.80;5.15;;;28.90;96.20;;;;;;5072914;28;20048;-65
2023/06/21 09:10:28;;;;;;;6.80;5.15;;;28.40;96.30;;;;;;5072728;28;20044;-66
2023/06/21 09:12:57;;;;;;;7.90;5.25;;;28.80;96.10;;;;;;5036435;28;20061;-65
2023/06/21 09:15:25;;;;;;;11.13;4.65;;;29.20;95.00;;;;;;5054622;28;20082;-65
2023/06/21 09:17:53;;;;;;;6.53;4.72;;;28.60;95.60;;;;;;5054590;28;20484;-65
2023/06/21 09:20:22;;;;;;;5.90;4.43;;;29.10;95.20;;;;;;5055181;28;20048;-65
2023/06/21 09:22:49;;;;;;;5.93;3.60;;;29.20;94.80;;;;;;5072041;28;20059;-65
2023/06/21 09:25:16;;;;;;;4.75;3.33;;;29.60;94.20;;;;;;5054583;28;20044;-65
2023/06/21 09:27:43;;;;;;;5.75;4.00;;;29.90;94.20;;;;;;5072703;28;20508;-65
2023/06/21 09:30:12;;;;;;;5.38;3.88;;;30.00;93.60;;;;;;5054846;28;20044;-65
2023/06/21 09:32:39;;;;;;;7.47;4.37;;;30.50;93.40;;;;;;5054545;28;20067;-65
2023/06/21 09:35:07;;;;;;;6.90;3.90;;;30.80;92.90;;;;;;5072501;28;20094;-65
2023/06/21 09:37:35;;;;;;;7.65;4.72;;;30.60;92.60;;;;;;5072300;28;20041;-66
2023/06/21 09:40:03;;;;;;;5.72;4.20;;;30.20;92.60;;;;;;5072158;28;20136;-65
2023/06/21 09:42:30;;;;;;;7.22;3.85;;;30.20;92.50;;;;;;5045973;28;20056;-64
2023/06/21 09:44:57;;;;;;;8.35;4.78;;;30.20;92.60;;;;;;5072008;28;20052;-65
2023/06/21 09:47:30;;;;;;;4.75;3.63;;;30.00;92.80;;;;;;5054625;28;20434;-64
2023/06/21 09:49:57;;;;;;;5.63;4.13;;;29.80;91.70;;;;;;5072251;28;20391;-64
2023/06/21 09:52:25;;;;;;;6.22;4.10;;;30.20;92.20;;;;;;5071682;28;20052;-65
2023/06/21 09:54:51;;;;;;;5.88;4.18;;;29.90;92.60;;;;;;5046539;28;20045;-63
2023/06/21 09:57:18;;;;;;;7.57;4.53;;;30.10;92.40;;;;;;5053405;28;20568;-65
2023/06/21 09:59:49;;;;;;;6.05;3.83;;;30.50;92.00;;;;;;5052082;28;20048;-66
2023/06/21 10:02:16;;;;;;;6.63;3.72;;;30.60;91.50;;;;;;5071989;28;20155;-66
2023/06/21 10:04:45;;;;;;;4.70;3.47;;;30.60;91.10;;;;;;5054569;28;20048;-65
2023/06/21 10:07:14;;;;;;;8.13;4.15;;;31.20;90.70;;;;;;5071541;28;20048;-65
2023/06/21 10:09:42;;;;;;;6.30;4.00;;;31.20;90.30;;;;;;5071982;28;20041;-66
2023/06/21 10:12:10;;;;;;;4.93;3.70;;;30.60;90.00;;;;;;5072077;28;20044;-65
2023/06/21 10:14:37;;;;;;;5.68;4.18;;;29.90;90.70;;;;;;5051795;28;20495;-65
2023/06/21 10:17:05;;;;;;;5.97;4.40;;;30.00;91.40;;;;;;5054213;28;20399;-65
2023/06/21 10:19:32;;;;;;;5.85;4.18;;;30.10;91.00;;;;;;5071976;28;20049;-66
2023/06/21 10:22:04;;;;;;;7.53;4.60;;;29.90;91.10;;;;;;5053583;28;20056;-65
2023/06/21 10:24:37;;;;;;;6.82;4.85;;;30.60;91.10;;;;;;5071831;28;20130;-65
2023/06/21 10:27:07;;;;;;;5.57;4.32;;;30.80;90.40;;;;;;5053326;28;20052;-66
2023/06/21 10:29:34;;;;;;;;;;;31.10;90.20;;;;;;5052407;28;20040;-66
2023/06/21 10:32:02;;;;;;;6.25;3.80;;;31.10;90.10;;;;;;5053998;28;19921;-65
2023/06/21 10:34:37;;;;;;;5.75;3.60;;;31.30;90.70;;;;;;5053165;28;20396;-66
2023/06/21 10:37:22;;;;;;;5.47;3.15;;;31.80;89.80;;;;;;5071855;28;20051;-65
2023/06/21 10:39:53;;;;;;;5.00;3.75;;;31.30;89.20;;;;;;5053020;28;20159;-65
2023/06/21 10:42:22;;;;;;;5.03;3.17;;;31.30;90.00;;;;;;5034606;28;20816;-65
2023/06/21 10:44:52;;;;;;;5.78;3.63;;;31.10;89.40;;;;;;5034929;28;20496;-66
2023/06/21 10:47:20;;;;;;;4.35;3.08;;;30.90;89.40;;;;;;5051779;28;20087;-66
2023/06/21 10:49:48;;;;;;;6.85;3.90;;;31.30;88.80;;;;;;5070541;28;20110;-66
2023/06/21 10:52:17;;;;;;;4.85;3.50;;;31.70;88.70;;;;;;5071602;28;20114;-66
2023/06/21 10:54:48;;;;;;;5.25;3.22;;;32.00;88.00;;;;;;5035001;28;20484;-65
2023/06/21 10:57:16;;;;;;;4.43;3.30;;;32.50;87.30;;;;;;5070853;28;20099;-66
2023/06/21 10:59:44;;;;;;;7.50;3.78;;;32.20;86.50;;;;;;5071329;28;20084;-66
2023/06/21 11:02:11;;;;;;;8.05;3.78;;;32.00;86.00;;;;;;5053686;28;20407;-66
2023/06/21 11:05:11;;;;;;;8.30;3.45;;;32.50;86.70;;;;;;5071211;28;20053;-66
2023/06/21 11:07:45;;;;;;;4.18;2.92;;;32.40;84.50;;;;;;5071670;28;20053;-66
2023/06/21 11:10:12;;;;;;;4.45;2.83;;;32.40;85.50;;;;;;5070744;28;20051;-65
2023/06/21 11:12:39;;;;;;;6.95;3.63;;;32.00;85.40;;;;;;5053677;28;20404;-66
2023/06/21 11:15:07;;;;;;;6.50;3.10;;;31.80;85.70;;;;;;5071261;28;20478;-66
2023/06/21 11:17:36;;;;;;;7.50;3.13;;;31.20;86.20;;;;;;5052776;28;20052;-65
2023/06/21 11:20:22;;;;;;;5.45;2.85;;;30.60;87.40;;;;;;5053325;28;20149;-66
2023/06/21 11:22:58;;;;;;;4.07;2.60;;;30.50;86.70;;;;;;5070495;28;20052;-65
2023/06/21 11:25:25;;;;;;;7.03;2.65;;;30.80;88.20;;;;;;5051383;28;20048;-65
2023/06/21 11:28:29;;;;;;;6.05;3.17;;;31.50;88.10;;;;;;5052468;28;20094;-65
2023/06/21 11:31:24;;;;;;;3.95;3.08;;;32.00;85.50;;;;;;5070080;28;20047;-66
2023/06/21 11:33:55;;;;;;;4.20;3.08;;;32.00;84.70;;;;;;5057378;28;20052;-66
2023/06/21 11:36:27;;;;;;;6.93;3.17;;;32.20;84.70;;;;;;5053315;28;20096;-66
2023/06/21 11:39:15;;;;;;;5.43;2.67;;;31.90;85.10;;;;;;5052959;28;20060;-66
2023/06/21 11:41:59;;;;;;;5.63;3.10;;;31.10;86.30;;;;;;5070315;28;20044;-64
2023/06/21 11:44:31;;;;;;;6.72;3.10;;;30.90;86.40;;;;;;5070164;28;20132;-66
2023/06/21 11:47:05;;;;;;;6.15;3.45;;;30.90;86.20;;;;;;5073904;28;20483;-65
2023/06/21 11:49:34;;;;;;;8.27;3.65;;;30.50;86.90;;;;;;5056792;28;20052;-65
2023/06/21 11:52:05;;;;;;;5.40;3.92;;;30.30;87.00;;;;;;5073851;28;20119;-66
2023/06/21 11:54:35;;;;;;;5.55;3.97;;;30.10;87.10;;;;;;5074357;28;20101;-65
2023/06/21 11:57:05;;;;;;;5.95;3.78;;;30.40;87.20;;;;;;5074654;28;20147;-65
2023/06/21 11:59:32;;;;;;;;;;;30.50;86.70;;;;;;5074265;28;20052;-65
2023/06/21 12:02:12;;;;;;;5.82;4.00;;;30.10;87.10;;;;;;5074446;28;20338;-66
2023/06/21 12:04:40;;;;;;;7.30;4.20;;;30.00;88.10;;;;;;5056790;28;20468;-65
2023/06/21 12:07:07;;;;;;;6.53;4.68;;;29.70;88.90;;;;;;5055821;28;20098;-64
2023/06/21 12:09:36;;;;;;;6.55;4.78;;;29.80;89.50;;;;;;5074270;28;20411;-65
2023/06/21 12:12:03;;;;;;;9.05;5.45;;;29.70;89.80;;;;;;5056697;28;20049;-65
2023/06/21 12:14:30;;;;;;;6.40;5.30;;;29.60;89.50;;;;;;5055701;28;20133;-65
2023/06/21 12:16:56;;;;;;;8.93;5.50;;;29.80;89.80;;;;;;5074274;28;20045;-65
2023/06/21 12:19:23;;;;;;;11.98;5.75;;;29.50;90.10;;;;;;5074004;28;20110;-67
2023/06/21 12:21:50;;;;;;;6.75;4.63;;;29.70;89.00;;;;;;5073344;28;20078;-65
2023/06/21 12:24:26;;;;;;;6.80;4.35;;;30.20;88.40;;;;;;5074155;28;20056;-64
2023/06/21 12:26:57;;;;;;;6.90;3.97;;;30.90;86.90;;;;;;5055851;28;20041;-66
2023/06/21 12:29:24;;;;;;;7.57;4.65;;;31.10;87.20;;;;;;5073883;28;20044;-66
2023/06/21 12:31:53;;;;;;;5.68;4.68;;;31.40;87.50;;;;;;5074030;28;20407;-65
2023/06/21 12:34:21;;;;;;;7.13;4.70;;;31.10;86.60;;;;;;5036651;28;20063;-65
2023/06/21 12:36:48;;;;;;;7.10;3.53;;;31.30;86.30;;;;;;5037572;28;20083;-65
2023/06/21 12:39:15;;;;;;;7.78;3.28;;;31.70;85.60;;;;;;5054674;28;20060;-66
2023/06/21 12:41:44;;;;;;;5.15;3.45;;;32.00;84.80;;;;;;5055346;28;20497;-65